createdAt,value
2022-10-05T00:02:24.259Z,100.00
2022-10-05T00:04:56.304Z,100.00
2022-10-05T00:07:24.502Z,100.00
2022-10-05T00:10:00.351Z,100.00
2022-10-05T00:12:29.805Z,100.00
2022-10-05T00:15:00.338Z,100.00
2022-10-05T00:17:29.590Z,100.00
2022-10-05T00:19:56.432Z,100.00
2022-10-05T00:22:29.308Z,100.00
2022-10-05T00:24:59.173Z,100.00
2022-10-05T00:27:31.220Z,100.00
2022-10-05T00:30:00.241Z,100.00
2022-10-05T00:32:27.359Z,100.00
2022-10-05T00:34:54.636Z,100.00
2022-10-05T00:37:21.253Z,100.00
2022-10-05T00:39:49.551Z,100.00
2022-10-05T00:42:44.011Z,100.00
2022-10-05T00:45:23.542Z,100.00
2022-10-05T00:48:11.133Z,100.00
2022-10-05T00:50:43.684Z,100.00
2022-10-05T00:53:31.639Z,100.00
2022-10-05T00:56:35.490Z,100.00
2022-10-05T00:59:36.831Z,100.00
2022-10-05T01:02:10.643Z,100.00
2022-10-05T01:04:54.207Z,100.00
2022-10-05T01:07:28.648Z,100.00
2022-10-05T01:10:15.965Z,100.00
2022-10-05T01:12:45.716Z,100.00
2022-10-05T01:15:12.542Z,100.00
2022-10-05T01:18:03.002Z,100.00
2022-10-05T01:20:32.252Z,100.00
2022-10-05T01:23:28.273Z,100.00
2022-10-05T01:25:57.689Z,100.00
2022-10-05T01:28:30.021Z,100.00
2022-10-05T01:31:04.678Z,100.00
2022-10-05T01:33:40.239Z,100.00
2022-10-05T01:36:27.005Z,100.00
2022-10-05T01:39:21.029Z,100.00
2022-10-05T01:42:10.664Z,100.00
2022-10-05T01:45:00.059Z,100.00
2022-10-05T01:47:41.878Z,100.00
2022-10-05T01:50:20.079Z,100.00
2022-10-05T01:53:19.684Z,100.00
2022-10-05T01:55:56.593Z,100.00
2022-10-05T01:58:59.282Z,100.00
2022-10-05T02:01:58.927Z,100.00
2022-10-05T02:05:01.019Z,100.00
2022-10-05T02:07:33.849Z,100.00
2022-10-05T02:10:30.894Z,100.00
2022-10-05T02:13:09.524Z,100.00
2022-10-05T02:15:49.942Z,100.00
2022-10-05T02:18:29.829Z,100.00
2022-10-05T02:21:02.917Z,100.00
2022-10-05T02:23:34.972Z,100.00
2022-10-05T02:26:02.081Z,100.00
2022-10-05T02:28:42.006Z,100.00
2022-10-05T02:31:19.602Z,100.00
2022-10-05T02:33:48.184Z,100.00
2022-10-05T02:36:23.703Z,100.00
2022-10-05T02:39:03.436Z,100.00
2022-10-05T02:41:51.680Z,100.00
2022-10-05T02:44:37.202Z,100.00
2022-10-05T02:47:27.867Z,100.00
2022-10-05T02:50:26.846Z,100.00
2022-10-05T02:53:19.517Z,100.00
2022-10-05T02:56:28.503Z,100.00
2022-10-05T02:59:16.851Z,100.00
2022-10-05T03:01:54.947Z,100.00
2022-10-05T03:04:46.449Z,100.00
2022-10-05T03:07:30.223Z,100.00
2022-10-05T03:10:20.880Z,100.00
2022-10-05T03:13:02.188Z,100.00
2022-10-05T03:15:40.882Z,100.00
2022-10-05T03:18:21.781Z,100.00
2022-10-05T03:21:10.360Z,100.00
2022-10-05T03:23:55.104Z,100.00
2022-10-05T03:26:40.632Z,100.00
2022-10-05T03:29:37.837Z,100.00
2022-10-05T03:32:14.832Z,100.00
2022-10-05T03:35:03.539Z,100.00
2022-10-05T03:38:24.826Z,100.00
2022-10-05T03:41:06.232Z,100.00
2022-10-05T03:44:14.245Z,100.00
2022-10-05T03:46:58.675Z,100.00
2022-10-05T03:49:37.591Z,100.00
2022-10-05T03:52:22.831Z,100.00
2022-10-05T03:55:13.000Z,100.00
2022-10-05T03:57:42.206Z,100.00
2022-10-05T04:00:19.483Z,100.00
2022-10-05T04:03:02.212Z,100.00
2022-10-05T04:05:55.489Z,100.00
2022-10-05T04:08:48.446Z,100.00
2022-10-05T04:11:27.573Z,100.00
2022-10-05T04:14:00.861Z,100.00
2022-10-05T04:16:52.233Z,100.00
2022-10-05T04:19:27.644Z,100.00
2022-10-05T04:22:12.477Z,100.00
2022-10-05T04:24:49.541Z,100.00
2022-10-05T04:27:23.452Z,100.00
2022-10-05T04:30:05.115Z,100.00
2022-10-05T04:32:36.737Z,100.00
2022-10-05T04:35:13.170Z,100.00
2022-10-05T04:38:17.324Z,100.00
2022-10-05T04:41:18.855Z,100.00
2022-10-05T04:44:21.391Z,100.00
2022-10-05T04:46:54.189Z,100.00
2022-10-05T04:49:21.408Z,100.00
2022-10-05T04:52:12.887Z,100.00
2022-10-05T04:55:14.781Z,100.00
2022-10-05T04:58:02.545Z,100.00
2022-10-05T05:01:01.671Z,100.00
2022-10-05T05:03:47.262Z,100.00
2022-10-05T05:06:48.294Z,100.00
2022-10-05T05:09:36.871Z,100.00
2022-10-05T05:12:06.868Z,100.00
2022-10-05T05:14:40.431Z,100.00
2022-10-05T05:17:31.940Z,100.00
2022-10-05T05:20:20.941Z,100.00
2022-10-05T05:22:50.405Z,100.00
2022-10-05T05:25:30.087Z,100.00
2022-10-05T05:28:17.761Z,100.00
2022-10-05T05:31:05.514Z,100.00
2022-10-05T05:34:03.757Z,100.00
2022-10-05T05:36:44.189Z,100.00
2022-10-05T05:39:40.137Z,100.00
2022-10-05T05:42:17.044Z,100.00
2022-10-05T05:44:49.458Z,100.00
2022-10-05T05:47:38.388Z,100.00
2022-10-05T05:50:10.229Z,100.00
2022-10-05T05:53:10.781Z,100.00
2022-10-05T05:55:46.383Z,100.00
2022-10-05T05:58:19.283Z,100.00
2022-10-05T06:01:05.876Z,100.00
2022-10-05T06:03:39.811Z,100.00
2022-10-05T06:06:17.783Z,100.00
2022-10-05T06:09:00.678Z,100.00
2022-10-05T06:11:53.093Z,100.00
2022-10-05T06:14:25.610Z,100.00
2022-10-05T06:17:01.969Z,100.00
2022-10-05T06:19:32.282Z,100.00
2022-10-05T06:22:06.780Z,100.00
2022-10-05T06:25:21.056Z,100.00
2022-10-05T06:28:12.937Z,100.00
2022-10-05T06:31:40.958Z,100.00
2022-10-05T06:34:18.931Z,100.00
2022-10-05T06:36:51.301Z,100.00
2022-10-05T06:39:48.790Z,100.00
2022-10-05T06:42:31.498Z,100.00
2022-10-05T06:45:36.185Z,100.00
2022-10-05T06:48:47.104Z,100.00
2022-10-05T06:52:01.536Z,100.00
2022-10-05T06:54:51.589Z,100.00
2022-10-05T06:58:10.344Z,100.00
2022-10-05T07:00:51.532Z,100.00
2022-10-05T07:03:40.743Z,100.00
2022-10-05T07:06:15.325Z,100.00
2022-10-05T07:09:15.123Z,100.00
2022-10-05T07:12:03.740Z,100.00
2022-10-05T07:14:55.164Z,100.00
2022-10-05T07:17:28.806Z,100.00
2022-10-05T07:20:10.711Z,100.00
2022-10-05T07:22:58.724Z,100.00
2022-10-05T07:25:42.854Z,100.00
2022-10-05T07:28:18.276Z,100.00
2022-10-05T07:31:10.564Z,100.00
2022-10-05T07:33:49.973Z,100.00
2022-10-05T07:36:54.841Z,100.00
2022-10-05T07:39:58.643Z,100.00
2022-10-05T07:42:50.907Z,100.00
2022-10-05T07:45:29.158Z,100.00
2022-10-05T07:48:01.879Z,100.00
2022-10-05T07:50:57.459Z,100.00
2022-10-05T07:53:37.669Z,100.00
2022-10-05T07:56:15.753Z,100.00
2022-10-05T07:58:51.599Z,100.00
2022-10-05T08:01:26.751Z,100.00
2022-10-05T08:04:04.292Z,100.00
2022-10-05T08:06:52.243Z,100.00
2022-10-05T08:09:34.592Z,100.00
2022-10-05T08:12:07.907Z,100.00
2022-10-05T08:14:46.545Z,100.00
2022-10-05T08:17:24.006Z,100.00
2022-10-05T08:20:03.028Z,100.00
2022-10-05T08:22:37.964Z,100.00
2022-10-05T08:25:17.648Z,100.00
2022-10-05T08:27:59.877Z,100.00
2022-10-05T08:30:26.550Z,100.00
2022-10-05T08:32:58.836Z,100.00
2022-10-05T08:35:33.997Z,100.00
2022-10-05T08:38:05.258Z,100.00
2022-10-05T08:40:46.886Z,100.00
2022-10-05T08:43:22.921Z,100.00
2022-10-05T08:45:49.531Z,100.00
2022-10-05T08:48:42.601Z,100.00
2022-10-05T08:51:12.049Z,100.00
2022-10-05T08:54:23.074Z,100.00
2022-10-05T08:57:09.864Z,100.00
2022-10-05T08:59:59.652Z,100.00
2022-10-05T09:02:32.045Z,100.00
2022-10-05T09:05:23.473Z,100.00
2022-10-05T09:08:08.558Z,100.00
2022-10-05T09:10:47.417Z,100.00
2022-10-05T09:13:47.992Z,100.00
2022-10-05T09:16:44.054Z,100.00
2022-10-05T09:19:22.851Z,100.00
2022-10-05T09:22:04.966Z,100.00
2022-10-05T09:24:57.133Z,100.00
2022-10-05T09:27:51.141Z,100.00
2022-10-05T09:30:39.522Z,100.00
2022-10-05T09:33:08.797Z,100.00
2022-10-05T09:36:03.316Z,100.00
2022-10-05T09:38:30.852Z,100.00
2022-10-05T09:40:57.601Z,100.00
2022-10-05T09:43:59.504Z,100.00
2022-10-05T09:46:53.278Z,100.00
2022-10-05T09:49:28.976Z,100.00
2022-10-05T09:52:19.072Z,100.00
2022-10-05T09:55:16.768Z,100.00
2022-10-05T09:58:05.547Z,100.00
2022-10-05T10:00:38.311Z,100.00
2022-10-05T10:03:43.042Z,100.00
2022-10-05T10:06:32.890Z,100.00
2022-10-05T10:09:41.069Z,100.00
2022-10-05T10:12:35.638Z,100.00
2022-10-05T10:15:19.580Z,100.00
2022-10-05T10:18:10.863Z,100.00
2022-10-05T10:20:43.675Z,100.00
2022-10-05T10:23:10.266Z,100.00
2022-10-05T10:26:15.750Z,100.00
2022-10-05T10:29:17.971Z,100.00
2022-10-05T10:32:10.115Z,100.00
2022-10-05T10:35:07.849Z,100.00
2022-10-05T10:37:40.791Z,100.00
2022-10-05T10:40:23.283Z,100.00
2022-10-05T10:42:59.098Z,100.00
2022-10-05T10:45:28.672Z,100.00
2022-10-05T10:48:05.068Z,100.00
2022-10-05T10:50:50.647Z,100.00
2022-10-05T10:53:22.776Z,100.00
2022-10-05T10:55:52.055Z,100.00
2022-10-05T10:58:46.576Z,100.00
2022-10-05T11:01:27.200Z,100.00
2022-10-05T11:03:59.918Z,100.00
2022-10-05T11:06:47.543Z,98.16
2022-10-05T11:09:32.365Z,99.97
2022-10-05T11:12:17.836Z,93.54
2022-10-05T11:14:59.111Z,98.78
2022-10-05T11:17:45.805Z,100.00
2022-10-05T11:20:48.301Z,100.00
2022-10-05T11:23:52.528Z,100.00
2022-10-05T11:26:19.105Z,100.00
2022-10-05T11:29:23.441Z,100.00
2022-10-05T11:32:07.830Z,100.00
2022-10-05T11:34:49.709Z,100.00
2022-10-05T11:37:36.545Z,100.00
2022-10-05T11:40:21.393Z,100.00
2022-10-05T11:43:00.162Z,100.00
2022-10-05T11:45:31.817Z,100.00
2022-10-05T11:48:17.004Z,100.00
2022-10-05T11:50:57.809Z,96.43
2022-10-05T11:53:41.294Z,93.77
2022-10-05T11:56:35.931Z,88.81
2022-10-05T11:59:15.747Z,89.70
2022-10-05T12:01:49.587Z,86.52
2022-10-05T12:04:34.560Z,91.19
2022-10-05T12:07:02.767Z,84.02
2022-10-05T12:09:32.050Z,88.03
2022-10-05T12:12:07.696Z,86.72
2022-10-05T12:14:44.248Z,82.55
2022-10-05T12:17:23.227Z,85.79
2022-10-05T12:20:06.766Z,86.11
2022-10-05T12:22:42.353Z,84.71
2022-10-05T12:25:22.061Z,88.12
2022-10-05T12:27:53.979Z,93.53
2022-10-05T12:30:45.572Z,90.23
2022-10-05T12:33:24.032Z,85.86
2022-10-05T12:36:06.292Z,84.71
2022-10-05T12:38:56.268Z,84.56
2022-10-05T12:41:33.963Z,85.05
2022-10-05T12:44:19.126Z,87.88
2022-10-05T12:47:13.559Z,83.04
2022-10-05T12:50:18.715Z,83.72
2022-10-05T12:52:59.779Z,86.57
2022-10-05T12:55:47.597Z,84.84
2022-10-05T12:58:51.303Z,82.26
2022-10-05T13:01:41.568Z,81.09
2022-10-05T13:04:14.262Z,82.94
2022-10-05T13:07:10.533Z,88.02
2022-10-05T13:09:57.878Z,90.38
2022-10-05T13:12:46.723Z,89.67
2022-10-05T13:15:31.299Z,89.55
2022-10-05T13:18:06.578Z,90.33
2022-10-05T13:20:41.876Z,90.60
2022-10-05T13:23:08.489Z,89.55
2022-10-05T13:25:41.671Z,89.09
2022-10-05T13:28:15.316Z,88.78
2022-10-05T13:30:51.115Z,89.88
2022-10-05T13:33:42.207Z,91.41
2022-10-05T13:36:30.043Z,94.71
2022-10-05T13:39:14.503Z,92.77
2022-10-05T13:42:26.782Z,91.50
2022-10-05T13:45:01.070Z,89.07
2022-10-05T13:47:43.131Z,87.73
2022-10-05T13:50:18.904Z,89.03
2022-10-05T13:52:50.873Z,89.99
2022-10-05T13:55:39.291Z,90.09
2022-10-05T13:58:23.963Z,87.94
2022-10-05T14:00:54.470Z,91.13
2022-10-05T14:03:28.194Z,93.15
2022-10-05T14:05:59.870Z,94.60
2022-10-05T14:08:33.421Z,96.28
2022-10-05T14:11:08.666Z,96.55
2022-10-05T14:13:47.071Z,98.31
2022-10-05T14:16:13.722Z,97.44
2022-10-05T14:19:04.547Z,99.44
2022-10-05T14:21:42.548Z,100.00
2022-10-05T14:24:25.871Z,100.00
2022-10-05T14:27:47.768Z,100.00
2022-10-05T14:30:14.403Z,100.00
2022-10-05T14:33:03.015Z,100.00
2022-10-05T14:35:43.503Z,100.00
2022-10-05T14:38:55.102Z,100.00
2022-10-05T14:41:27.893Z,100.00
2022-10-05T14:44:02.148Z,100.00
2022-10-05T14:46:32.674Z,100.00
2022-10-05T14:49:36.056Z,100.00
2022-10-05T14:52:32.673Z,100.00
2022-10-05T14:55:11.560Z,100.00
2022-10-05T14:57:52.078Z,100.00
2022-10-05T15:00:19.261Z,100.00
2022-10-05T15:03:19.727Z,100.00
2022-10-05T15:05:53.379Z,100.00
2022-10-05T15:08:45.123Z,100.00
2022-10-05T15:11:48.621Z,100.00
2022-10-05T15:14:21.553Z,100.00
2022-10-05T15:16:52.763Z,100.00
2022-10-05T15:19:24.829Z,100.00
2022-10-05T15:22:06.911Z,100.00
2022-10-05T15:24:43.988Z,100.00
2022-10-05T15:27:18.144Z,100.00
2022-10-05T15:30:04.432Z,100.00
2022-10-05T15:32:42.837Z,100.00
2022-10-05T15:35:43.749Z,100.00
2022-10-05T15:38:25.846Z,100.00
2022-10-05T15:40:59.078Z,100.00
2022-10-05T15:43:38.996Z,100.00
2022-10-05T15:46:26.335Z,100.00
2022-10-05T15:48:52.939Z,100.00
2022-10-05T15:51:37.969Z,100.00
2022-10-05T15:54:43.311Z,100.00
2022-10-05T15:57:18.892Z,100.00
2022-10-05T16:00:13.202Z,100.00
2022-10-05T16:02:58.232Z,100.00
2022-10-05T16:05:55.965Z,100.00
2022-10-05T16:08:53.427Z,100.00
2022-10-05T16:11:32.235Z,100.00
2022-10-05T16:14:46.505Z,100.00
2022-10-05T16:17:28.503Z,100.00
2022-10-05T16:20:02.967Z,100.00
2022-10-05T16:23:13.770Z,100.00
2022-10-05T16:26:13.185Z,100.00
2022-10-05T16:28:42.838Z,100.00
2022-10-05T16:31:22.164Z,100.00
2022-10-05T16:34:17.068Z,100.00
2022-10-05T16:36:58.326Z,100.00
2022-10-05T16:39:51.392Z,100.00
2022-10-05T16:42:27.372Z,100.00
2022-10-05T16:45:23.259Z,100.00
2022-10-05T16:48:13.495Z,100.00
2022-10-05T16:50:54.613Z,100.00
2022-10-05T16:53:44.899Z,100.00
2022-10-05T16:56:18.570Z,100.00
2022-10-05T16:59:19.600Z,100.00
2022-10-05T17:02:02.124Z,100.00
2022-10-05T17:05:00.775Z,100.00
2022-10-05T17:07:36.352Z,100.00
2022-10-05T17:10:21.467Z,100.00
2022-10-05T17:13:22.088Z,100.00
2022-10-05T17:16:14.807Z,100.00
2022-10-05T17:19:19.451Z,100.00
2022-10-05T17:22:00.442Z,100.00
2022-10-05T17:24:27.156Z,100.00
2022-10-05T17:26:56.096Z,100.00
2022-10-05T17:29:24.804Z,100.00
2022-10-05T17:32:06.821Z,100.00
2022-10-05T17:34:36.477Z,100.00
2022-10-05T17:37:27.919Z,100.00
2022-10-05T17:39:56.116Z,100.00
2022-10-05T17:42:25.937Z,100.00
2022-10-05T17:45:02.540Z,100.00
2022-10-05T17:48:04.084Z,100.00
2022-10-05T17:50:56.482Z,100.00
2022-10-05T17:54:02.609Z,100.00
2022-10-05T17:57:12.933Z,100.00
2022-10-05T17:59:44.567Z,100.00
2022-10-05T18:02:37.497Z,100.00
2022-10-05T18:05:04.597Z,100.00
2022-10-05T18:07:33.731Z,100.00
2022-10-05T18:10:12.429Z,100.00
2022-10-05T18:12:44.972Z,100.00
2022-10-05T18:15:16.548Z,100.00
2022-10-05T18:17:46.423Z,100.00
2022-10-05T18:20:26.312Z,100.00
2022-10-05T18:23:03.132Z,100.00
2022-10-05T18:25:49.104Z,100.00
2022-10-05T18:28:21.883Z,100.00
2022-10-05T18:31:20.559Z,100.00
2022-10-05T18:34:01.534Z,100.00
2022-10-05T18:36:38.046Z,100.00
2022-10-05T18:39:26.663Z,100.00
2022-10-05T18:42:20.232Z,100.00
2022-10-05T18:44:55.283Z,100.00
2022-10-05T18:47:42.591Z,100.00
2022-10-05T18:50:12.236Z,100.00
2022-10-05T18:52:57.870Z,100.00
2022-10-05T18:55:33.153Z,100.00
2022-10-05T18:58:07.408Z,100.00
2022-10-05T19:00:45.099Z,100.00
2022-10-05T19:04:04.550Z,100.00
2022-10-05T19:06:39.720Z,100.00
2022-10-05T19:09:44.966Z,100.00
2022-10-05T19:12:14.462Z,100.00
2022-10-05T19:15:04.780Z,100.00
2022-10-05T19:17:49.870Z,100.00
2022-10-05T19:20:28.736Z,100.00
2022-10-05T19:23:09.639Z,100.00
2022-10-05T19:25:48.466Z,100.00
2022-10-05T19:28:38.605Z,100.00
2022-10-05T19:31:14.943Z,100.00
2022-10-05T19:34:19.390Z,100.00
2022-10-05T19:37:09.700Z,100.00
2022-10-05T19:39:44.296Z,100.00
2022-10-05T19:42:20.191Z,100.00
2022-10-05T19:45:10.288Z,100.00
2022-10-05T19:48:09.613Z,100.00
2022-10-05T19:50:40.894Z,100.00
2022-10-05T19:53:10.241Z,100.00
2022-10-05T19:55:43.604Z,100.00
2022-10-05T19:58:39.984Z,100.00
2022-10-05T20:01:11.256Z,100.00
2022-10-05T20:03:38.541Z,100.00
2022-10-05T20:06:07.797Z,100.00
2022-10-05T20:08:40.349Z,100.00
2022-10-05T20:11:11.583Z,100.00
2022-10-05T20:13:44.395Z,100.00
2022-10-05T20:16:35.896Z,100.00
2022-10-05T20:19:42.505Z,100.00
2022-10-05T20:22:30.078Z,100.00
2022-10-05T20:25:18.093Z,100.00
2022-10-05T20:27:48.149Z,100.00
2022-10-05T20:30:21.355Z,100.00
2022-10-05T20:32:52.687Z,100.00
2022-10-05T20:35:23.279Z,100.00
2022-10-05T20:37:49.981Z,100.00
2022-10-05T20:40:18.711Z,100.00
2022-10-05T20:42:46.037Z,100.00
2022-10-05T20:45:13.858Z,100.00
2022-10-05T20:47:40.709Z,100.00
2022-10-05T20:50:09.449Z,100.00
2022-10-05T20:52:37.357Z,100.00
2022-10-05T20:55:06.099Z,100.00
2022-10-05T20:57:32.783Z,100.00
2022-10-05T20:59:59.501Z,100.00
2022-10-05T21:02:26.251Z,100.00
2022-10-05T21:04:52.947Z,100.00
2022-10-05T21:07:21.122Z,100.00
2022-10-05T21:09:47.840Z,100.00
2022-10-05T21:12:16.351Z,100.00
2022-10-05T21:14:43.349Z,100.00
2022-10-05T21:17:11.913Z,100.00
2022-10-05T21:19:39.354Z,100.00
2022-10-05T21:22:10.027Z,100.00
2022-10-05T21:24:38.856Z,100.00
2022-10-05T21:27:06.217Z,100.00
2022-10-05T21:29:35.229Z,100.00
2022-10-05T21:32:02.158Z,100.00
2022-10-05T21:34:28.909Z,100.00
2022-10-05T21:36:55.751Z,100.00
2022-10-05T21:39:22.422Z,100.00
2022-10-05T21:41:49.867Z,100.00
2022-10-05T21:44:16.810Z,100.00
2022-10-05T21:46:43.719Z,100.00
2022-10-05T21:49:10.527Z,100.00
2022-10-05T21:51:38.412Z,100.00
2022-10-05T21:54:12.069Z,100.00
2022-10-05T21:56:43.644Z,100.00
2022-10-05T21:59:15.658Z,100.00
2022-10-05T22:01:42.383Z,100.00
2022-10-05T22:04:09.184Z,100.00
2022-10-05T22:06:36.229Z,100.00
2022-10-05T22:09:04.464Z,100.00
2022-10-05T22:11:31.660Z,100.00
2022-10-05T22:14:02.407Z,100.00
2022-10-05T22:16:32.801Z,100.00
2022-10-05T22:19:04.339Z,100.00
2022-10-05T22:21:34.008Z,100.00
2022-10-05T22:24:02.669Z,100.00
2022-10-05T22:26:29.956Z,100.00
2022-10-05T22:28:57.037Z,100.00
2022-10-05T22:31:24.287Z,100.00
2022-10-05T22:33:51.520Z,100.00
2022-10-05T22:36:18.772Z,100.00
2022-10-05T22:38:47.423Z,100.00
2022-10-05T22:41:16.419Z,100.00
2022-10-05T22:43:43.110Z,100.00
2022-10-05T22:46:12.068Z,100.00
2022-10-05T22:48:39.798Z,100.00
2022-10-05T22:51:07.372Z,100.00
2022-10-05T22:53:34.874Z,100.00
2022-10-05T22:56:12.558Z,100.00
2022-10-05T22:58:40.559Z,100.00
2022-10-05T23:01:13.862Z,100.00
2022-10-05T23:03:41.179Z,100.00
2022-10-05T23:06:10.375Z,100.00
2022-10-05T23:08:38.233Z,100.00
2022-10-05T23:11:10.736Z,100.00
2022-10-05T23:13:37.584Z,100.00
2022-10-05T23:16:08.574Z,100.00
2022-10-05T23:18:35.608Z,100.00
2022-10-05T23:21:02.764Z,100.00
2022-10-05T23:23:29.446Z,100.00
2022-10-05T23:26:00.593Z,100.00
2022-10-05T23:28:28.788Z,100.00
2022-10-05T23:31:04.688Z,100.00
2022-10-05T23:33:31.699Z,100.00
2022-10-05T23:36:01.946Z,100.00
2022-10-05T23:38:29.986Z,100.00
2022-10-05T23:40:58.784Z,100.00
2022-10-05T23:43:26.776Z,100.00
2022-10-05T23:45:53.485Z,100.00
2022-10-05T23:48:20.088Z,100.00
2022-10-05T23:50:47.803Z,100.00
2022-10-05T23:53:15.364Z,100.00
2022-10-05T23:55:42.087Z,100.00
2022-10-05T23:58:09.007Z,100.00
